sensor_id;sensor_type;location;lat;lon;timestamp;P1;durP1;ratioP1;P2;durP2;ratioP2
32748;SDS011;19119;52.474;13.710;2024-03-22T00:01:04;14.60;;;7.60;;
32748;SDS011;19119;52.474;13.710;2024-03-22T00:03:29;14.82;;;8.10;;
32748;SDS011;19119;52.474;13.710;2024-03-22T00:05:56;15.57;;;7.85;;
32748;SDS011;19119;52.474;13.710;2024-03-22T00:08:22;12.85;;;7.60;;
32748;SDS011;19119;52.474;13.710;2024-03-22T00:10:48;17.23;;;8.52;;
32748;SDS011;19119;52.474;13.710;2024-03-22T00:13:14;15.43;;;8.45;;
32748;SDS011;19119;52.474;13.710;2024-03-22T00:15:39;13.88;;;7.78;;
32748;SDS011;19119;52.474;13.710;2024-03-22T00:18:05;15.32;;;7.80;;
32748;SDS011;19119;52.474;13.710;2024-03-22T00:20:30;13.68;;;7.45;;
32748;SDS011;19119;52.474;13.710;2024-03-22T00:22:56;13.75;;;8.25;;
32748;SDS011;19119;52.474;13.710;2024-03-22T00:25:21;18.20;;;8.75;;
32748;SDS011;19119;52.474;13.710;2024-03-22T00:27:47;16.52;;;7.35;;
32748;SDS011;19119;52.474;13.710;2024-03-22T00:30:12;15.23;;;7.57;;
32748;SDS011;19119;52.474;13.710;2024-03-22T00:32:40;17.70;;;7.63;;
32748;SDS011;19119;52.474;13.710;2024-03-22T00:35:06;16.55;;;7.60;;
32748;SDS011;19119;52.474;13.710;2024-03-22T00:37:31;15.00;;;8.70;;
32748;SDS011;19119;52.474;13.710;2024-03-22T00:39:57;15.75;;;7.97;;
32748;SDS011;19119;52.474;13.710;2024-03-22T00:42:22;14.48;;;7.35;;
32748;SDS011;19119;52.474;13.710;2024-03-22T00:44:48;14.20;;;7.78;;
32748;SDS011;19119;52.474;13.710;2024-03-22T00:47:13;14.65;;;8.00;;
32748;SDS011;19119;52.474;13.710;2024-03-22T00:49:39;14.00;;;8.18;;
32748;SDS011;19119;52.474;13.710;2024-03-22T00:52:04;15.63;;;8.38;;
32748;SDS011;19119;52.474;13.710;2024-03-22T00:54:29;16.08;;;8.30;;
32748;SDS011;19119;52.474;13.710;2024-03-22T00:56:55;15.25;;;9.20;;
32748;SDS011;19119;52.474;13.710;2024-03-22T00:59:20;17.23;;;8.95;;
32748;SDS011;19119;52.474;13.710;2024-03-22T01:01:46;15.23;;;8.48;;
32748;SDS011;19119;52.474;13.710;2024-03-22T01:04:12;16.23;;;8.93;;
32748;SDS011;19119;52.474;13.710;2024-03-22T01:06:37;15.40;;;9.30;;
32748;SDS011;19119;52.474;13.710;2024-03-22T01:09:04;16.27;;;9.02;;
32748;SDS011;19119;52.474;13.710;2024-03-22T01:11:31;18.42;;;9.48;;
32748;SDS011;19119;52.474;13.710;2024-03-22T01:13:56;16.85;;;9.38;;
32748;SDS011;19119;52.474;13.710;2024-03-22T01:16:21;16.98;;;9.43;;
32748;SDS011;19119;52.474;13.710;2024-03-22T01:18:47;18.75;;;10.20;;
32748;SDS011;19119;52.474;13.710;2024-03-22T01:21:13;16.88;;;9.23;;
32748;SDS011;19119;52.474;13.710;2024-03-22T01:23:39;18.67;;;9.45;;
32748;SDS011;19119;52.474;13.710;2024-03-22T01:26:04;15.30;;;8.77;;
32748;SDS011;19119;52.474;13.710;2024-03-22T01:28:30;19.60;;;10.18;;
32748;SDS011;19119;52.474;13.710;2024-03-22T01:30:55;16.33;;;9.07;;
32748;SDS011;19119;52.474;13.710;2024-03-22T01:33:21;16.65;;;9.25;;
32748;SDS011;19119;52.474;13.710;2024-03-22T01:35:46;20.23;;;9.65;;
32748;SDS011;19119;52.474;13.710;2024-03-22T01:38:11;17.52;;;8.85;;
32748;SDS011;19119;52.474;13.710;2024-03-22T01:40:37;17.92;;;9.48;;
32748;SDS011;19119;52.474;13.710;2024-03-22T01:43:02;18.15;;;9.07;;
32748;SDS011;19119;52.474;13.710;2024-03-22T01:45:31;18.40;;;9.45;;
32748;SDS011;19119;52.474;13.710;2024-03-22T01:47:57;15.52;;;9.00;;
32748;SDS011;19119;52.474;13.710;2024-03-22T01:50:24;19.40;;;10.30;;
32748;SDS011;19119;52.474;13.710;2024-03-22T01:52:50;17.70;;;9.23;;
32748;SDS011;19119;52.474;13.710;2024-03-22T01:55:16;15.55;;;8.35;;
32748;SDS011;19119;52.474;13.710;2024-03-22T01:57:42;17.25;;;9.70;;
32748;SDS011;19119;52.474;13.710;2024-03-22T02:00:08;18.77;;;9.48;;
32748;SDS011;19119;52.474;13.710;2024-03-22T02:02:34;16.13;;;9.68;;
32748;SDS011;19119;52.474;13.710;2024-03-22T02:05:11;16.92;;;9.00;;
32748;SDS011;19119;52.474;13.710;2024-03-22T02:07:41;18.33;;;8.85;;
32748;SDS011;19119;52.474;13.710;2024-03-22T02:10:07;18.38;;;9.23;;
32748;SDS011;19119;52.474;13.710;2024-03-22T02:12:35;17.67;;;10.13;;
32748;SDS011;19119;52.474;13.710;2024-03-22T02:15:01;20.80;;;9.25;;
32748;SDS011;19119;52.474;13.710;2024-03-22T02:17:27;20.88;;;10.27;;
32748;SDS011;19119;52.474;13.710;2024-03-22T02:19:53;19.95;;;9.90;;
32748;SDS011;19119;52.474;13.710;2024-03-22T02:22:18;20.77;;;10.40;;
32748;SDS011;19119;52.474;13.710;2024-03-22T02:24:44;18.20;;;9.48;;
32748;SDS011;19119;52.474;13.710;2024-03-22T02:27:09;21.33;;;10.05;;
32748;SDS011;19119;52.474;13.710;2024-03-22T02:29:35;17.55;;;9.32;;
32748;SDS011;19119;52.474;13.710;2024-03-22T02:32:00;19.10;;;9.85;;
32748;SDS011;19119;52.474;13.710;2024-03-22T02:34:26;19.70;;;9.93;;
32748;SDS011;19119;52.474;13.710;2024-03-22T02:36:51;19.35;;;9.52;;
32748;SDS011;19119;52.474;13.710;2024-03-22T02:39:17;19.00;;;9.57;;
32748;SDS011;19119;52.474;13.710;2024-03-22T02:41:42;22.90;;;10.85;;
32748;SDS011;19119;52.474;13.710;2024-03-22T02:44:08;20.27;;;9.27;;
32748;SDS011;19119;52.474;13.710;2024-03-22T02:46:33;21.33;;;10.27;;
32748;SDS011;19119;52.474;13.710;2024-03-22T02:48:59;20.42;;;10.55;;
32748;SDS011;19119;52.474;13.710;2024-03-22T02:51:25;20.00;;;9.23;;
32748;SDS011;19119;52.474;13.710;2024-03-22T02:53:50;20.40;;;10.50;;
32748;SDS011;19119;52.474;13.710;2024-03-22T02:56:16;20.77;;;9.82;;
32748;SDS011;19119;52.474;13.710;2024-03-22T02:58:41;22.98;;;10.65;;
32748;SDS011;19119;52.474;13.710;2024-03-22T03:01:07;23.67;;;10.43;;
32748;SDS011;19119;52.474;13.710;2024-03-22T03:03:32;22.20;;;10.38;;
32748;SDS011;19119;52.474;13.710;2024-03-22T03:05:58;21.88;;;10.70;;
32748;SDS011;19119;52.474;13.710;2024-03-22T03:08:23;21.55;;;10.18;;
32748;SDS011;19119;52.474;13.710;2024-03-22T03:10:49;19.60;;;9.10;;
32748;SDS011;19119;52.474;13.710;2024-03-22T03:13:14;24.33;;;10.68;;
32748;SDS011;19119;52.474;13.710;2024-03-22T03:15:40;23.40;;;10.00;;
32748;SDS011;19119;52.474;13.710;2024-03-22T03:18:06;20.10;;;9.27;;
32748;SDS011;19119;52.474;13.710;2024-03-22T03:20:31;22.65;;;9.52;;
32748;SDS011;19119;52.474;13.710;2024-03-22T03:22:57;20.23;;;9.50;;
32748;SDS011;19119;52.474;13.710;2024-03-22T03:25:24;19.63;;;9.30;;
32748;SDS011;19119;52.474;13.710;2024-03-22T03:27:51;21.42;;;9.65;;
32748;SDS011;19119;52.474;13.710;2024-03-22T03:30:16;17.83;;;8.70;;
32748;SDS011;19119;52.474;13.710;2024-03-22T03:32:42;20.58;;;10.32;;
32748;SDS011;19119;52.474;13.710;2024-03-22T03:35:07;20.83;;;9.45;;
32748;SDS011;19119;52.474;13.710;2024-03-22T03:37:33;20.05;;;9.60;;
32748;SDS011;19119;52.474;13.710;2024-03-22T03:39:58;18.85;;;9.20;;
32748;SDS011;19119;52.474;13.710;2024-03-22T03:42:24;17.30;;;8.60;;
32748;SDS011;19119;52.474;13.710;2024-03-22T03:44:49;20.85;;;9.88;;
32748;SDS011;19119;52.474;13.710;2024-03-22T03:47:15;20.55;;;9.07;;
32748;SDS011;19119;52.474;13.710;2024-03-22T03:49:40;20.25;;;9.00;;
32748;SDS011;19119;52.474;13.710;2024-03-22T03:52:06;18.10;;;9.13;;
32748;SDS011;19119;52.474;13.710;2024-03-22T03:54:31;18.95;;;9.45;;
32748;SDS011;19119;52.474;13.710;2024-03-22T03:56:57;19.80;;;8.98;;
32748;SDS011;19119;52.474;13.710;2024-03-22T03:59:22;20.40;;;7.82;;
32748;SDS011;19119;52.474;13.710;2024-03-22T04:01:48;17.77;;;8.77;;
32748;SDS011;19119;52.474;13.710;2024-03-22T04:04:14;19.70;;;8.85;;
32748;SDS011;19119;52.474;13.710;2024-03-22T04:06:39;21.20;;;9.18;;
32748;SDS011;19119;52.474;13.710;2024-03-22T04:09:05;20.48;;;8.82;;
32748;SDS011;19119;52.474;13.710;2024-03-22T04:11:30;23.05;;;10.45;;
32748;SDS011;19119;52.474;13.710;2024-03-22T04:13:56;18.15;;;8.13;;
32748;SDS011;19119;52.474;13.710;2024-03-22T04:16:21;18.60;;;9.07;;
32748;SDS011;19119;52.474;13.710;2024-03-22T04:18:47;20.98;;;9.52;;
32748;SDS011;19119;52.474;13.710;2024-03-22T04:21:12;20.23;;;8.57;;
32748;SDS011;19119;52.474;13.710;2024-03-22T04:23:38;19.58;;;8.13;;
32748;SDS011;19119;52.474;13.710;2024-03-22T04:26:03;20.48;;;9.27;;
32748;SDS011;19119;52.474;13.710;2024-03-22T04:28:29;22.60;;;9.55;;
32748;SDS011;19119;52.474;13.710;2024-03-22T04:30:58;19.98;;;9.02;;
32748;SDS011;19119;52.474;13.710;2024-03-22T04:33:28;22.45;;;9.40;;
32748;SDS011;19119;52.474;13.710;2024-03-22T04:35:55;18.58;;;9.20;;
32748;SDS011;19119;52.474;13.710;2024-03-22T04:38:21;18.23;;;9.23;;
32748;SDS011;19119;52.474;13.710;2024-03-22T04:40:47;18.17;;;8.52;;
32748;SDS011;19119;52.474;13.710;2024-03-22T04:43:14;23.15;;;9.93;;
32748;SDS011;19119;52.474;13.710;2024-03-22T04:45:41;21.83;;;9.38;;
32748;SDS011;19119;52.474;13.710;2024-03-22T04:48:12;21.63;;;9.82;;
32748;SDS011;19119;52.474;13.710;2024-03-22T04:50:38;22.45;;;10.27;;
32748;SDS011;19119;52.474;13.710;2024-03-22T04:53:04;22.48;;;9.43;;
32748;SDS011;19119;52.474;13.710;2024-03-22T04:55:30;24.45;;;9.70;;
32748;SDS011;19119;52.474;13.710;2024-03-22T04:57:56;20.30;;;8.82;;
32748;SDS011;19119;52.474;13.710;2024-03-22T05:00:21;22.08;;;9.38;;
32748;SDS011;19119;52.474;13.710;2024-03-22T05:02:47;20.42;;;9.80;;
32748;SDS011;19119;52.474;13.710;2024-03-22T05:05:12;22.45;;;9.85;;
32748;SDS011;19119;52.474;13.710;2024-03-22T05:07:38;19.65;;;8.88;;
32748;SDS011;19119;52.474;13.710;2024-03-22T05:10:04;21.92;;;8.85;;
32748;SDS011;19119;52.474;13.710;2024-03-22T05:12:30;22.20;;;8.63;;
32748;SDS011;19119;52.474;13.710;2024-03-22T05:14:56;21.52;;;9.55;;
32748;SDS011;19119;52.474;13.710;2024-03-22T05:17:21;20.27;;;8.98;;
32748;SDS011;19119;52.474;13.710;2024-03-22T05:19:47;19.20;;;8.43;;
32748;SDS011;19119;52.474;13.710;2024-03-22T05:22:12;18.42;;;8.25;;
32748;SDS011;19119;52.474;13.710;2024-03-22T05:24:38;20.55;;;9.18;;
32748;SDS011;19119;52.474;13.710;2024-03-22T05:27:03;20.08;;;8.80;;
32748;SDS011;19119;52.474;13.710;2024-03-22T05:29:29;21.48;;;9.02;;
32748;SDS011;19119;52.474;13.710;2024-03-22T05:31:55;21.00;;;8.75;;
32748;SDS011;19119;52.474;13.710;2024-03-22T05:34:20;17.15;;;8.20;;
32748;SDS011;19119;52.474;13.710;2024-03-22T05:36:46;25.38;;;8.43;;
32748;SDS011;19119;52.474;13.710;2024-03-22T05:39:11;15.63;;;7.82;;
32748;SDS011;19119;52.474;13.710;2024-03-22T05:41:37;17.33;;;8.30;;
32748;SDS011;19119;52.474;13.710;2024-03-22T05:44:03;16.10;;;8.98;;
32748;SDS011;19119;52.474;13.710;2024-03-22T05:46:30;21.05;;;8.95;;
32748;SDS011;19119;52.474;13.710;2024-03-22T05:48:56;17.60;;;7.90;;
32748;SDS011;19119;52.474;13.710;2024-03-22T05:51:22;22.27;;;8.90;;
32748;SDS011;19119;52.474;13.710;2024-03-22T05:53:47;18.67;;;8.90;;
32748;SDS011;19119;52.474;13.710;2024-03-22T05:56:13;16.88;;;7.75;;
32748;SDS011;19119;52.474;13.710;2024-03-22T05:58:39;17.52;;;7.85;;
32748;SDS011;19119;52.474;13.710;2024-03-22T06:01:05;19.92;;;9.10;;
32748;SDS011;19119;52.474;13.710;2024-03-22T06:03:30;18.83;;;8.48;;
32748;SDS011;19119;52.474;13.710;2024-03-22T06:05:56;20.77;;;8.73;;
32748;SDS011;19119;52.474;13.710;2024-03-22T06:08:25;18.23;;;8.93;;
32748;SDS011;19119;52.474;13.710;2024-03-22T06:10:52;16.83;;;8.27;;
32748;SDS011;19119;52.474;13.710;2024-03-22T06:13:18;15.57;;;8.48;;
32748;SDS011;19119;52.474;13.710;2024-03-22T06:15:43;21.63;;;7.72;;
32748;SDS011;19119;52.474;13.710;2024-03-22T06:18:12;20.90;;;8.98;;
32748;SDS011;19119;52.474;13.710;2024-03-22T06:20:37;18.25;;;8.60;;
32748;SDS011;19119;52.474;13.710;2024-03-22T06:23:03;20.63;;;9.32;;
32748;SDS011;19119;52.474;13.710;2024-03-22T06:25:28;17.88;;;8.98;;
32748;SDS011;19119;52.474;13.710;2024-03-22T06:27:54;16.50;;;8.10;;
32748;SDS011;19119;52.474;13.710;2024-03-22T06:30:20;23.42;;;8.55;;
32748;SDS011;19119;52.474;13.710;2024-03-22T06:32:45;16.27;;;8.30;;
32748;SDS011;19119;52.474;13.710;2024-03-22T06:35:11;19.63;;;7.72;;
32748;SDS011;19119;52.474;13.710;2024-03-22T06:37:37;17.63;;;7.78;;
32748;SDS011;19119;52.474;13.710;2024-03-22T06:40:04;16.45;;;7.97;;
32748;SDS011;19119;52.474;13.710;2024-03-22T06:42:30;17.27;;;8.98;;
32748;SDS011;19119;52.474;13.710;2024-03-22T06:44:55;18.02;;;7.60;;
32748;SDS011;19119;52.474;13.710;2024-03-22T06:47:21;18.50;;;9.95;;
32748;SDS011;19119;52.474;13.710;2024-03-22T06:49:48;17.92;;;8.70;;
32748;SDS011;19119;52.474;13.710;2024-03-22T06:52:14;19.55;;;9.10;;
32748;SDS011;19119;52.474;13.710;2024-03-22T06:54:40;18.10;;;9.10;;
32748;SDS011;19119;52.474;13.710;2024-03-22T06:57:06;18.52;;;8.35;;
32748;SDS011;19119;52.474;13.710;2024-03-22T06:59:31;17.10;;;8.55;;
32748;SDS011;19119;52.474;13.710;2024-03-22T07:01:57;16.85;;;8.68;;
32748;SDS011;19119;52.474;13.710;2024-03-22T07:04:22;19.20;;;9.05;;
32748;SDS011;19119;52.474;13.710;2024-03-22T07:06:48;16.08;;;8.02;;
32748;SDS011;19119;52.474;13.710;2024-03-22T07:09:13;18.52;;;8.60;;
32748;SDS011;19119;52.474;13.710;2024-03-22T07:11:39;18.48;;;8.75;;
32748;SDS011;19119;52.474;13.710;2024-03-22T07:14:04;21.67;;;8.85;;
32748;SDS011;19119;52.474;13.710;2024-03-22T07:16:30;22.10;;;9.05;;
32748;SDS011;19119;52.474;13.710;2024-03-22T07:18:55;18.02;;;9.13;;
32748;SDS011;19119;52.474;13.710;2024-03-22T07:21:21;21.92;;;9.73;;
32748;SDS011;19119;52.474;13.710;2024-03-22T07:23:46;22.23;;;9.65;;
32748;SDS011;19119;52.474;13.710;2024-03-22T07:26:12;36.40;;;21.58;;
32748;SDS011;19119;52.474;13.710;2024-03-22T07:28:37;28.15;;;15.10;;
32748;SDS011;19119;52.474;13.710;2024-03-22T07:31:03;19.17;;;11.35;;
32748;SDS011;19119;52.474;13.710;2024-03-22T07:33:28;22.05;;;9.90;;
32748;SDS011;19119;52.474;13.710;2024-03-22T07:35:55;21.50;;;11.30;;
32748;SDS011;19119;52.474;13.710;2024-03-22T07:38:21;21.70;;;10.55;;
32748;SDS011;19119;52.474;13.710;2024-03-22T07:40:46;20.50;;;10.52;;
32748;SDS011;19119;52.474;13.710;2024-03-22T07:43:12;22.20;;;10.30;;
32748;SDS011;19119;52.474;13.710;2024-03-22T07:45:39;19.70;;;11.00;;
32748;SDS011;19119;52.474;13.710;2024-03-22T07:48:05;20.75;;;10.50;;
32748;SDS011;19119;52.474;13.710;2024-03-22T07:50:30;20.85;;;10.93;;
32748;SDS011;19119;52.474;13.710;2024-03-22T07:52:56;30.08;;;12.20;;
32748;SDS011;19119;52.474;13.710;2024-03-22T07:55:22;22.63;;;10.05;;
32748;SDS011;19119;52.474;13.710;2024-03-22T07:57:48;24.23;;;11.20;;
32748;SDS011;19119;52.474;13.710;2024-03-22T08:00:13;24.40;;;12.05;;
32748;SDS011;19119;52.474;13.710;2024-03-22T08:02:39;24.55;;;11.65;;
32748;SDS011;19119;52.474;13.710;2024-03-22T08:05:04;25.02;;;11.50;;
32748;SDS011;19119;52.474;13.710;2024-03-22T08:07:31;20.88;;;10.50;;
32748;SDS011;19119;52.474;13.710;2024-03-22T08:09:56;23.17;;;11.68;;
32748;SDS011;19119;52.474;13.710;2024-03-22T08:12:23;21.08;;;10.55;;
32748;SDS011;19119;52.474;13.710;2024-03-22T08:14:49;26.30;;;11.02;;
32748;SDS011;19119;52.474;13.710;2024-03-22T08:17:15;25.52;;;11.32;;
32748;SDS011;19119;52.474;13.710;2024-03-22T08:19:41;21.95;;;11.95;;
32748;SDS011;19119;52.474;13.710;2024-03-22T08:22:07;26.27;;;12.77;;
32748;SDS011;19119;52.474;13.710;2024-03-22T08:24:32;26.52;;;11.25;;
32748;SDS011;19119;52.474;13.710;2024-03-22T08:26:58;27.08;;;12.55;;
32748;SDS011;19119;52.474;13.710;2024-03-22T08:29:24;21.88;;;11.40;;
32748;SDS011;19119;52.474;13.710;2024-03-22T08:31:50;24.20;;;12.25;;
32748;SDS011;19119;52.474;13.710;2024-03-22T08:34:15;25.55;;;10.95;;
32748;SDS011;19119;52.474;13.710;2024-03-22T08:36:41;24.30;;;12.02;;
32748;SDS011;19119;52.474;13.710;2024-03-22T08:39:06;21.33;;;12.07;;
32748;SDS011;19119;52.474;13.710;2024-03-22T08:41:35;23.00;;;11.82;;
32748;SDS011;19119;52.474;13.710;2024-03-22T08:44:01;27.38;;;12.93;;
32748;SDS011;19119;52.474;13.710;2024-03-22T08:46:27;24.85;;;11.23;;
32748;SDS011;19119;52.474;13.710;2024-03-22T08:48:53;24.50;;;11.35;;
32748;SDS011;19119;52.474;13.710;2024-03-22T08:51:19;21.13;;;10.88;;
32748;SDS011;19119;52.474;13.710;2024-03-22T08:53:44;23.05;;;11.25;;
32748;SDS011;19119;52.474;13.710;2024-03-22T08:56:10;24.65;;;12.65;;
32748;SDS011;19119;52.474;13.710;2024-03-22T08:58:36;26.98;;;12.05;;
32748;SDS011;19119;52.474;13.710;2024-03-22T09:01:01;24.50;;;12.23;;
32748;SDS011;19119;52.474;13.710;2024-03-22T09:03:27;24.48;;;12.20;;
32748;SDS011;19119;52.474;13.710;2024-03-22T09:05:52;21.55;;;11.82;;
32748;SDS011;19119;52.474;13.710;2024-03-22T09:08:18;23.55;;;11.65;;
32748;SDS011;19119;52.474;13.710;2024-03-22T09:10:46;22.83;;;11.15;;
32748;SDS011;19119;52.474;13.710;2024-03-22T09:13:12;25.90;;;11.10;;
32748;SDS011;19119;52.474;13.710;2024-03-22T09:15:37;26.42;;;12.43;;
32748;SDS011;19119;52.474;13.710;2024-03-22T09:18:03;20.80;;;10.77;;
32748;SDS011;19119;52.474;13.710;2024-03-22T09:20:29;25.85;;;12.15;;
32748;SDS011;19119;52.474;13.710;2024-03-22T09:22:55;24.23;;;12.88;;
32748;SDS011;19119;52.474;13.710;2024-03-22T09:25:22;25.75;;;12.95;;
32748;SDS011;19119;52.474;13.710;2024-03-22T09:27:48;30.17;;;14.00;;
32748;SDS011;19119;52.474;13.710;2024-03-22T09:30:13;27.92;;;12.95;;
32748;SDS011;19119;52.474;13.710;2024-03-22T09:32:39;26.05;;;12.60;;
32748;SDS011;19119;52.474;13.710;2024-03-22T09:35:05;23.70;;;11.13;;
32748;SDS011;19119;52.474;13.710;2024-03-22T09:37:31;23.88;;;11.02;;
32748;SDS011;19119;52.474;13.710;2024-03-22T09:39:57;25.35;;;11.88;;
32748;SDS011;19119;52.474;13.710;2024-03-22T09:42:23;22.58;;;11.10;;
32748;SDS011;19119;52.474;13.710;2024-03-22T09:44:50;23.88;;;10.63;;
32748;SDS011;19119;52.474;13.710;2024-03-22T09:47:19;20.88;;;10.20;;
32748;SDS011;19119;52.474;13.710;2024-03-22T09:49:46;21.58;;;10.50;;
32748;SDS011;19119;52.474;13.710;2024-03-22T09:52:13;20.10;;;11.05;;
32748;SDS011;19119;52.474;13.710;2024-03-22T09:54:41;23.00;;;10.23;;
32748;SDS011;19119;52.474;13.710;2024-03-22T09:57:07;23.65;;;11.27;;
32748;SDS011;19119;52.474;13.710;2024-03-22T09:59:46;19.75;;;10.10;;
32748;SDS011;19119;52.474;13.710;2024-03-22T10:02:11;18.50;;;9.68;;
32748;SDS011;19119;52.474;13.710;2024-03-22T10:04:38;20.58;;;10.32;;
32748;SDS011;19119;52.474;13.710;2024-03-22T10:07:06;21.40;;;10.73;;
32748;SDS011;19119;52.474;13.710;2024-03-22T10:09:33;21.65;;;10.43;;
32748;SDS011;19119;52.474;13.710;2024-03-22T10:11:58;21.13;;;10.05;;
32748;SDS011;19119;52.474;13.710;2024-03-22T10:14:24;22.23;;;11.00;;
32748;SDS011;19119;52.474;13.710;2024-03-22T10:16:53;20.25;;;10.55;;
32748;SDS011;19119;52.474;13.710;2024-03-22T10:19:22;20.73;;;10.93;;
32748;SDS011;19119;52.474;13.710;2024-03-22T10:21:48;22.08;;;11.20;;
32748;SDS011;19119;52.474;13.710;2024-03-22T10:24:28;19.00;;;10.05;;
32748;SDS011;19119;52.474;13.710;2024-03-22T10:26:54;22.27;;;11.00;;
32748;SDS011;19119;52.474;13.710;2024-03-22T10:29:20;21.77;;;10.25;;
32748;SDS011;19119;52.474;13.710;2024-03-22T10:31:47;18.58;;;9.52;;
32748;SDS011;19119;52.474;13.710;2024-03-22T10:34:20;18.65;;;9.88;;
32748;SDS011;19119;52.474;13.710;2024-03-22T10:36:47;19.73;;;9.98;;
32748;SDS011;19119;52.474;13.710;2024-03-22T10:39:15;18.77;;;10.18;;
32748;SDS011;19119;52.474;13.710;2024-03-22T10:41:43;16.90;;;10.10;;
32748;SDS011;19119;52.474;13.710;2024-03-22T10:44:13;18.73;;;9.18;;
32748;SDS011;19119;52.474;13.710;2024-03-22T10:46:39;18.17;;;9.27;;
32748;SDS011;19119;52.474;13.710;2024-03-22T10:49:12;23.77;;;10.52;;
32748;SDS011;19119;52.474;13.710;2024-03-22T10:51:42;22.27;;;10.90;;
32748;SDS011;19119;52.474;13.710;2024-03-22T10:54:11;17.42;;;9.65;;
32748;SDS011;19119;52.474;13.710;2024-03-22T10:56:42;17.13;;;9.48;;
32748;SDS011;19119;52.474;13.710;2024-03-22T10:59:08;16.92;;;9.18;;
32748;SDS011;19119;52.474;13.710;2024-03-22T11:01:33;16.73;;;9.23;;
32748;SDS011;19119;52.474;13.710;2024-03-22T11:04:05;17.13;;;9.30;;
32748;SDS011;19119;52.474;13.710;2024-03-22T11:06:36;17.10;;;8.88;;
32748;SDS011;19119;52.474;13.710;2024-03-22T11:09:02;22.58;;;10.73;;
32748;SDS011;19119;52.474;13.710;2024-03-22T11:11:29;17.83;;;9.45;;
32748;SDS011;19119;52.474;13.710;2024-03-22T11:13:56;17.27;;;9.50;;
32748;SDS011;19119;52.474;13.710;2024-03-22T11:16:22;17.92;;;9.18;;
32748;SDS011;19119;52.474;13.710;2024-03-22T11:18:47;17.70;;;9.52;;
32748;SDS011;19119;52.474;13.710;2024-03-22T11:21:17;15.80;;;8.20;;
32748;SDS011;19119;52.474;13.710;2024-03-22T11:23:46;22.15;;;10.30;;
32748;SDS011;19119;52.474;13.710;2024-03-22T11:26:12;15.00;;;7.93;;
32748;SDS011;19119;52.474;13.710;2024-03-22T11:28:38;18.13;;;9.52;;
32748;SDS011;19119;52.474;13.710;2024-03-22T11:31:04;19.33;;;9.77;;
32748;SDS011;19119;52.474;13.710;2024-03-22T11:33:30;15.50;;;8.88;;
32748;SDS011;19119;52.474;13.710;2024-03-22T11:35:58;17.80;;;9.68;;
32748;SDS011;19119;52.474;13.710;2024-03-22T11:38:25;16.40;;;8.27;;
32748;SDS011;19119;52.474;13.710;2024-03-22T11:40:52;17.30;;;9.93;;
32748;SDS011;19119;52.474;13.710;2024-03-22T11:43:19;20.10;;;9.85;;
32748;SDS011;19119;52.474;13.710;2024-03-22T11:45:45;18.70;;;9.48;;
32748;SDS011;19119;52.474;13.710;2024-03-22T11:48:10;18.15;;;9.13;;
32748;SDS011;19119;52.474;13.710;2024-03-22T11:50:37;19.35;;;9.82;;
32748;SDS011;19119;52.474;13.710;2024-03-22T11:53:04;16.10;;;8.75;;
32748;SDS011;19119;52.474;13.710;2024-03-22T11:55:30;19.50;;;9.73;;
32748;SDS011;19119;52.474;13.710;2024-03-22T11:57:57;19.83;;;8.88;;
32748;SDS011;19119;52.474;13.710;2024-03-22T12:00:22;17.85;;;8.77;;
32748;SDS011;19119;52.474;13.710;2024-03-22T12:02:50;16.38;;;8.82;;
32748;SDS011;19119;52.474;13.710;2024-03-22T12:05:16;13.35;;;6.53;;
32748;SDS011;19119;52.474;13.710;2024-03-22T12:07:42;17.88;;;9.98;;
32748;SDS011;19119;52.474;13.710;2024-03-22T12:10:08;19.17;;;9.90;;
32748;SDS011;19119;52.474;13.710;2024-03-22T12:12:34;19.40;;;9.50;;
32748;SDS011;19119;52.474;13.710;2024-03-22T12:15:00;19.00;;;9.20;;
32748;SDS011;19119;52.474;13.710;2024-03-22T12:17:25;18.08;;;9.55;;
32748;SDS011;19119;52.474;13.710;2024-03-22T12:19:51;21.02;;;10.45;;
32748;SDS011;19119;52.474;13.710;2024-03-22T12:22:17;19.90;;;10.25;;
32748;SDS011;19119;52.474;13.710;2024-03-22T12:24:43;22.98;;;10.05;;
32748;SDS011;19119;52.474;13.710;2024-03-22T12:27:08;21.75;;;10.52;;
32748;SDS011;19119;52.474;13.710;2024-03-22T12:29:34;25.17;;;10.98;;
32748;SDS011;19119;52.474;13.710;2024-03-22T12:32:00;18.10;;;10.02;;
32748;SDS011;19119;52.474;13.710;2024-03-22T12:34:27;20.05;;;10.77;;
32748;SDS011;19119;52.474;13.710;2024-03-22T12:36:54;23.63;;;11.32;;
32748;SDS011;19119;52.474;13.710;2024-03-22T12:39:20;22.48;;;10.65;;
32748;SDS011;19119;52.474;13.710;2024-03-22T12:41:45;24.10;;;12.02;;
32748;SDS011;19119;52.474;13.710;2024-03-22T12:44:11;22.05;;;10.70;;
32748;SDS011;19119;52.474;13.710;2024-03-22T12:46:37;20.85;;;11.35;;
32748;SDS011;19119;52.474;13.710;2024-03-22T12:49:02;23.88;;;11.90;;
32748;SDS011;19119;52.474;13.710;2024-03-22T12:51:28;23.83;;;11.48;;
32748;SDS011;19119;52.474;13.710;2024-03-22T12:53:54;23.08;;;12.43;;
32748;SDS011;19119;52.474;13.710;2024-03-22T12:56:20;21.50;;;11.43;;
32748;SDS011;19119;52.474;13.710;2024-03-22T12:58:46;24.85;;;10.73;;
32748;SDS011;19119;52.474;13.710;2024-03-22T13:01:12;25.40;;;11.82;;
32748;SDS011;19119;52.474;13.710;2024-03-22T13:03:38;26.00;;;11.43;;
32748;SDS011;19119;52.474;13.710;2024-03-22T13:06:03;23.90;;;11.73;;
32748;SDS011;19119;52.474;13.710;2024-03-22T13:08:30;25.42;;;12.50;;
32748;SDS011;19119;52.474;13.710;2024-03-22T13:10:58;24.17;;;11.45;;
32748;SDS011;19119;52.474;13.710;2024-03-22T13:13:24;28.67;;;13.15;;
32748;SDS011;19119;52.474;13.710;2024-03-22T13:15:49;25.85;;;13.45;;
32748;SDS011;19119;52.474;13.710;2024-03-22T13:18:15;28.70;;;14.25;;
32748;SDS011;19119;52.474;13.710;2024-03-22T13:20:40;27.30;;;12.82;;
32748;SDS011;19119;52.474;13.710;2024-03-22T13:23:06;29.80;;;13.70;;
32748;SDS011;19119;52.474;13.710;2024-03-22T13:25:33;26.92;;;12.85;;
32748;SDS011;19119;52.474;13.710;2024-03-22T13:28:00;28.75;;;12.60;;
32748;SDS011;19119;52.474;13.710;2024-03-22T13:30:25;26.65;;;12.02;;
32748;SDS011;19119;52.474;13.710;2024-03-22T13:32:52;27.25;;;12.48;;
32748;SDS011;19119;52.474;13.710;2024-03-22T13:35:17;26.13;;;13.52;;
32748;SDS011;19119;52.474;13.710;2024-03-22T13:37:43;29.08;;;13.95;;
32748;SDS011;19119;52.474;13.710;2024-03-22T13:40:09;25.10;;;12.15;;
32748;SDS011;19119;52.474;13.710;2024-03-22T13:42:34;25.20;;;11.40;;
32748;SDS011;19119;52.474;13.710;2024-03-22T13:45:00;26.33;;;12.15;;
32748;SDS011;19119;52.474;13.710;2024-03-22T13:47:26;22.83;;;11.93;;
32748;SDS011;19119;52.474;13.710;2024-03-22T13:49:55;23.35;;;11.88;;
32748;SDS011;19119;52.474;13.710;2024-03-22T13:52:20;35.42;;;15.88;;
32748;SDS011;19119;52.474;13.710;2024-03-22T13:54:46;30.80;;;14.90;;
32748;SDS011;19119;52.474;13.710;2024-03-22T13:57:11;31.08;;;16.85;;
32748;SDS011;19119;52.474;13.710;2024-03-22T13:59:37;32.30;;;15.70;;
32748;SDS011;19119;52.474;13.710;2024-03-22T14:02:05;32.70;;;15.30;;
32748;SDS011;19119;52.474;13.710;2024-03-22T14:04:31;28.35;;;14.07;;
32748;SDS011;19119;52.474;13.710;2024-03-22T14:06:57;27.13;;;12.20;;
32748;SDS011;19119;52.474;13.710;2024-03-22T14:09:22;32.50;;;13.70;;